Terminal Aerodrome Forecast
Issued by NWS

Home | Current Version | Previous Version | Text Only | Print | Product List | Glossary On
Versions: 1 2 3 4 5 6 7 8 9 10 11 12
000
FTUS45 KPIH 040520
TAFSUN
TAF
KSUN 040520Z 0406/0506 31011KT P6SM SCT100 BKN200
     FM041800 15009KT P6SM SCT100 BKN250
     FM042300 22008G15KT P6SM VCTS SCT090 BKN150CB
     FM050400 30009KT P6SM VCSH SCT100 BKN150
      AMD LTD TO CLD VIS AND WIND TIL 041300=

USA.gov is the U.S. government's official web portal to all federal, state and local government web resources and services.